Arkabutla, Mississippi
Current Conditions -  °F | °C
As of 4:55 AM on Sunday 23 Nov 2014 (Local Time) from KUTA Reporting Station
Overcast Overcast  
Wind Chill: 59°   Ceiling: 1400
Heat Index: 59°   Visibility: 10mi
Dew Point: 55°   Wind: 14mph
Humidity: 88%   Direction: 130°SE
Pressure: 29.77"   Gusts: NA
Location:  34.7°N, 90.12°W
Report Text: KUTA 231055Z AUTO 13012KT 10SM OVC014 15/13 A2977 RMK AO2
Loading
Personal Weather Stations






























Interactive Weather Map New forecast layout! Learn more

10-Day Weather Forecast

Advertisements
Track Severe Weather on mobile